createdAt,value
2018-07-04T00:01:02.596Z,14.90
2018-07-04T00:03:42.250Z,14.80
2018-07-04T00:06:21.895Z,14.80
2018-07-04T00:09:01.814Z,14.80
2018-07-04T00:11:41.631Z,14.70
2018-07-04T00:14:21.608Z,14.80
2018-07-04T00:17:01.346Z,14.80
2018-07-04T00:19:41.021Z,14.70
2018-07-04T00:22:20.609Z,14.70
2018-07-04T00:27:34.392Z,14.70
2018-07-04T00:30:14.318Z,14.60
2018-07-04T00:32:53.955Z,14.60
2018-07-04T00:35:33.910Z,14.60
2018-07-04T00:38:13.666Z,14.60
2018-07-04T00:40:53.794Z,14.50
2018-07-04T00:43:33.691Z,14.50
2018-07-04T00:46:13.698Z,14.40
2018-07-04T00:48:53.425Z,14.30
2018-07-04T00:51:33.377Z,14.30
2018-07-04T00:54:13.201Z,14.20
2018-07-04T00:56:53.304Z,14.20
2018-07-04T00:59:33.069Z,14.20
2018-07-04T01:02:13.063Z,14.20
2018-07-04T01:04:52.818Z,14.20
2018-07-04T01:07:32.641Z,14.10
2018-07-04T01:10:12.398Z,14.00
2018-07-04T01:12:52.045Z,14.10
2018-07-04T01:15:31.754Z,14.10
2018-07-04T01:18:11.452Z,14.00
2018-07-04T01:20:56.536Z,14.00
2018-07-04T01:23:36.540Z,14.00
2018-07-04T01:26:16.147Z,14.00
2018-07-04T01:28:56.102Z,14.00
2018-07-04T01:31:35.864Z,14.00
2018-07-04T01:34:15.638Z,13.90
2018-07-04T01:36:55.387Z,13.90
2018-07-04T01:39:35.392Z,13.90
2018-07-04T01:42:15.271Z,13.90
2018-07-04T01:44:55.382Z,13.80
2018-07-04T01:47:35.134Z,13.80
2018-07-04T01:50:15.064Z,13.80
2018-07-04T01:52:54.806Z,13.70
2018-07-04T01:55:34.478Z,13.70
2018-07-04T01:58:14.124Z,13.70
2018-07-04T02:00:53.955Z,13.70
2018-07-04T02:03:33.700Z,13.60
2018-07-04T02:06:13.627Z,13.60
2018-07-04T02:08:53.563Z,13.60
2018-07-04T02:11:33.576Z,13.60
2018-07-04T02:14:13.319Z,13.60
2018-07-04T02:16:53.299Z,13.60
2018-07-04T02:19:33.062Z,13.60
2018-07-04T02:22:12.801Z,13.50
2018-07-04T02:24:52.435Z,13.50
2018-07-04T02:27:32.366Z,13.50
2018-07-04T02:30:12.140Z,13.50
2018-07-04T02:32:51.959Z,13.50
2018-07-04T02:35:31.684Z,13.40
2018-07-04T02:38:11.762Z,13.40
2018-07-04T02:40:51.590Z,13.40
2018-07-04T02:43:31.326Z,13.30
2018-07-04T02:46:11.101Z,13.30
2018-07-04T02:48:50.963Z,13.30
2018-07-04T02:51:30.766Z,13.30
2018-07-04T02:54:10.571Z,13.30
2018-07-04T02:56:50.415Z,13.30
2018-07-04T02:59:30.095Z,13.30
2018-07-04T03:02:09.956Z,13.30
2018-07-04T03:04:49.814Z,13.30
2018-07-04T03:07:29.557Z,13.20
2018-07-04T03:10:09.349Z,13.30
2018-07-04T03:12:49.101Z,13.30
2018-07-04T03:18:02.839Z,13.20
2018-07-04T03:20:42.560Z,13.20
2018-07-04T03:23:22.272Z,13.30
2018-07-04T03:26:02.182Z,13.40
2018-07-04T03:28:42.007Z,13.30
2018-07-04T03:31:21.796Z,13.40
2018-07-04T03:34:01.610Z,13.40
2018-07-04T03:36:41.310Z,13.40
2018-07-04T03:39:20.995Z,13.50
2018-07-04T03:42:01.158Z,13.40
2018-07-04T03:44:40.890Z,13.50
2018-07-04T03:47:20.735Z,13.50
2018-07-04T03:50:00.445Z,13.60
2018-07-04T03:52:40.083Z,13.70
2018-07-04T03:55:19.750Z,13.80
2018-07-04T03:57:59.427Z,13.80
2018-07-04T04:00:39.083Z,13.90
2018-07-04T04:03:18.827Z,14.00
2018-07-04T04:05:58.823Z,14.00
2018-07-04T04:11:12.676Z,14.10
2018-07-04T04:13:52.627Z,14.20
2018-07-04T04:16:32.435Z,14.30
2018-07-04T04:19:12.171Z,14.50
2018-07-04T04:21:51.887Z,14.60
2018-07-04T04:24:32.012Z,14.60
2018-07-04T04:27:11.892Z,14.70
2018-07-04T04:29:51.714Z,14.70
2018-07-04T04:32:31.626Z,14.70
2018-07-04T04:35:11.491Z,14.90
2018-07-04T04:37:51.214Z,15.10
2018-07-04T04:40:31.057Z,15.20
2018-07-04T04:43:11.152Z,15.40
2018-07-04T04:45:51.061Z,15.60
2018-07-04T04:48:30.727Z,15.70
2018-07-04T04:51:10.390Z,15.90
2018-07-04T04:53:50.323Z,16.00
2018-07-04T04:56:30.189Z,16.10
2018-07-04T04:59:09.957Z,16.30
2018-07-04T05:01:49.918Z,16.40
2018-07-04T05:04:29.670Z,16.50
2018-07-04T05:07:09.491Z,16.70
2018-07-04T05:09:49.437Z,16.90
2018-07-04T05:12:29.612Z,17.00
2018-07-04T05:15:09.466Z,17.10
2018-07-04T05:17:49.303Z,17.30
2018-07-04T05:20:28.958Z,17.40
2018-07-04T05:23:08.673Z,17.50
2018-07-04T05:25:48.347Z,17.60
2018-07-04T05:28:28.095Z,17.80
2018-07-04T05:31:07.786Z,17.80
2018-07-04T05:33:47.579Z,18.00
2018-07-04T05:36:27.260Z,18.20
2018-07-04T05:39:07.040Z,18.30
2018-07-04T05:41:46.727Z,18.40
2018-07-04T05:44:26.776Z,18.50
2018-07-04T05:47:06.473Z,18.70
2018-07-04T05:49:46.191Z,18.70
2018-07-04T05:52:26.038Z,18.90
2018-07-04T05:55:05.675Z,18.90
2018-07-04T05:57:45.511Z,19.00
2018-07-04T06:00:25.359Z,19.20
2018-07-04T06:03:05.056Z,19.20
2018-07-04T06:05:45.070Z,19.30
2018-07-04T06:08:24.786Z,19.40
2018-07-04T06:11:04.642Z,19.50
2018-07-04T06:13:44.543Z,19.50
2018-07-04T06:16:24.549Z,19.60
2018-07-04T06:19:04.326Z,19.70
2018-07-04T06:21:44.123Z,19.70
2018-07-04T06:24:23.834Z,19.80
2018-07-04T06:27:03.676Z,19.80
2018-07-04T06:29:43.360Z,19.90
2018-07-04T06:32:23.199Z,20.00
2018-07-04T06:35:02.981Z,20.00
2018-07-04T06:37:47.856Z,20.10
2018-07-04T06:40:15.200Z,20.10
2018-07-04T06:42:42.543Z,20.10
2018-07-04T06:45:10.072Z,20.10
2018-07-04T06:47:37.404Z,20.20
2018-07-04T06:50:04.753Z,20.20
2018-07-04T06:52:32.362Z,20.30
2018-07-04T06:54:59.716Z,20.30
2018-07-04T06:57:27.059Z,20.40
2018-07-04T06:59:54.638Z,20.40
2018-07-04T07:02:22.016Z,20.50
2018-07-04T07:05:03.051Z,20.50
2018-07-04T07:07:42.840Z,20.60
2018-07-04T07:10:22.766Z,20.70
2018-07-04T07:13:02.462Z,20.70
2018-07-04T07:15:42.462Z,20.80
2018-07-04T07:18:22.190Z,20.90
2018-07-04T07:21:01.980Z,20.90
2018-07-04T07:23:41.815Z,20.90
2018-07-04T07:26:21.720Z,21.00
2018-07-04T07:29:01.381Z,21.10
2018-07-04T07:31:41.216Z,21.10
2018-07-04T07:34:20.972Z,21.10
2018-07-04T07:37:00.638Z,21.20
2018-07-04T07:39:40.512Z,21.30
2018-07-04T07:42:20.474Z,21.40
2018-07-04T07:47:34.363Z,21.50
2018-07-04T07:50:14.237Z,21.50
2018-07-04T07:52:53.942Z,21.60
2018-07-04T07:55:33.667Z,21.70
2018-07-04T07:58:13.710Z,21.70
2018-07-04T08:00:53.449Z,21.70
2018-07-04T08:03:33.398Z,21.70
2018-07-04T08:06:13.144Z,21.80
2018-07-04T08:08:53.147Z,21.90
2018-07-04T08:11:33.108Z,22.00
2018-07-04T08:14:13.205Z,22.10
2018-07-04T08:16:53.054Z,22.20
2018-07-04T08:19:32.905Z,22.30
2018-07-04T08:22:12.548Z,22.30
2018-07-04T08:24:52.463Z,22.50
2018-07-04T08:27:32.457Z,22.50
2018-07-04T08:30:12.429Z,22.60
2018-07-04T08:32:52.029Z,22.70
2018-07-04T08:35:31.938Z,22.80
2018-07-04T08:38:11.717Z,22.80
2018-07-04T08:40:51.536Z,22.90
2018-07-04T08:43:31.383Z,23.10
2018-07-04T08:46:11.062Z,23.10
2018-07-04T08:48:50.951Z,23.20
2018-07-04T08:51:30.648Z,23.30
2018-07-04T08:54:10.339Z,23.40
2018-07-04T08:56:50.340Z,23.40
2018-07-04T08:59:30.205Z,23.50
2018-07-04T09:04:44.109Z,23.70
2018-07-04T09:07:23.834Z,23.70
2018-07-04T09:10:03.465Z,23.70
2018-07-04T09:12:43.291Z,23.80
2018-07-04T09:15:23.254Z,23.90
2018-07-04T09:18:03.051Z,24.00
2018-07-04T09:20:42.781Z,24.00
2018-07-04T09:23:22.583Z,24.20
2018-07-04T09:26:02.338Z,24.20
2018-07-04T09:28:42.371Z,24.20
2018-07-04T09:31:22.294Z,24.20
2018-07-04T09:34:02.344Z,24.30
2018-07-04T09:36:42.272Z,24.30
2018-07-04T09:39:22.008Z,24.40
2018-07-04T09:42:01.764Z,24.40
2018-07-04T09:44:41.642Z,24.40
2018-07-04T09:47:21.599Z,24.60
2018-07-04T09:50:01.754Z,24.60
2018-07-04T09:52:41.529Z,24.70
2018-07-04T09:55:21.311Z,24.90
2018-07-04T09:58:01.021Z,24.90
2018-07-04T10:00:46.431Z,25.00
2018-07-04T10:03:26.099Z,25.00
2018-07-04T10:06:06.129Z,25.10
2018-07-04T10:08:46.004Z,25.20
2018-07-04T10:11:25.921Z,25.30
2018-07-04T10:14:05.684Z,25.50
2018-07-04T10:16:45.921Z,25.60
2018-07-04T10:19:25.882Z,25.80
2018-07-04T10:22:05.808Z,25.80
2018-07-04T10:24:45.589Z,25.70
2018-07-04T10:27:25.597Z,26.00
2018-07-04T10:30:05.385Z,25.90
2018-07-04T10:32:45.172Z,25.80
2018-07-04T10:35:24.887Z,26.20
2018-07-04T10:38:04.858Z,26.10
2018-07-04T10:40:44.629Z,26.20
2018-07-04T10:43:24.555Z,26.40
2018-07-04T10:46:04.406Z,26.60
2018-07-04T10:48:44.563Z,26.90
2018-07-04T10:51:24.332Z,26.80
2018-07-04T10:54:04.063Z,26.90
2018-07-04T10:56:43.775Z,27.10
2018-07-04T10:59:23.854Z,27.20
2018-07-04T11:02:03.742Z,27.40
2018-07-04T11:04:43.668Z,27.50
2018-07-04T11:07:23.599Z,27.60
2018-07-04T11:10:03.620Z,27.90
2018-07-04T11:12:43.734Z,28.00
2018-07-04T11:15:23.432Z,28.00
2018-07-04T11:18:02.935Z,27.80
2018-07-04T11:20:42.788Z,28.00
2018-07-04T11:23:22.539Z,27.40
2018-07-04T11:26:02.373Z,27.70
2018-07-04T11:28:42.247Z,27.70
2018-07-04T11:31:22.516Z,27.80
2018-07-04T11:34:02.402Z,28.00
2018-07-04T11:36:42.354Z,28.40
2018-07-04T11:39:22.143Z,28.40
2018-07-04T11:42:02.168Z,28.80
2018-07-04T11:44:42.032Z,28.80
2018-07-04T11:47:09.651Z,28.80
2018-07-04T11:49:37.145Z,28.70
2018-07-04T11:52:04.506Z,28.50
2018-07-04T11:54:32.050Z,28.80
2018-07-04T11:56:59.463Z,28.90
2018-07-04T11:59:26.832Z,29.20
2018-07-04T12:01:54.310Z,29.00
2018-07-04T12:04:34.290Z,29.00
2018-07-04T12:07:03.019Z,28.80
2018-07-04T12:09:30.443Z,29.10
2018-07-04T12:11:57.928Z,29.50
2018-07-04T12:14:25.562Z,29.60
2018-07-04T12:16:52.960Z,29.90
2018-07-04T12:19:20.306Z,29.90
2018-07-04T12:21:47.942Z,29.70
2018-07-04T12:24:15.306Z,29.80
2018-07-04T12:26:42.810Z,29.80
2018-07-04T12:31:38.617Z,30.10
2018-07-04T12:34:05.964Z,30.10
2018-07-04T12:36:33.946Z,30.40
2018-07-04T12:39:01.351Z,30.50
2018-07-04T12:41:29.090Z,30.00
2018-07-04T12:43:57.557Z,30.30
2018-07-04T12:46:24.958Z,30.10
2018-07-04T12:48:56.675Z,30.50
2018-07-04T12:51:24.027Z,30.60
2018-07-04T12:53:51.496Z,30.90
2018-07-04T12:56:31.482Z,31.00
2018-07-04T12:59:11.314Z,31.00
2018-07-04T13:01:51.216Z,30.90
2018-07-04T13:04:31.047Z,31.10
2018-07-04T13:07:10.925Z,31.20
2018-07-04T13:09:50.819Z,30.80
2018-07-04T13:12:30.614Z,30.80
2018-07-04T13:15:10.517Z,31.10
2018-07-04T13:17:50.556Z,31.00
2018-07-04T13:20:30.425Z,31.00
2018-07-04T13:23:10.582Z,31.30
2018-07-04T13:25:50.466Z,31.00
2018-07-04T13:28:30.112Z,31.10
2018-07-04T13:31:09.839Z,30.70
2018-07-04T13:33:49.659Z,31.10
2018-07-04T13:36:29.455Z,30.60
2018-07-04T13:39:09.466Z,30.90
2018-07-04T13:41:49.219Z,31.00
2018-07-04T13:44:29.278Z,30.90
2018-07-04T13:47:09.049Z,30.90
2018-07-04T13:49:48.979Z,30.80
2018-07-04T13:52:28.812Z,30.60
2018-07-04T13:55:08.647Z,30.50
2018-07-04T13:57:48.357Z,30.80
2018-07-04T14:00:28.323Z,30.70
2018-07-04T14:03:08.210Z,30.40
2018-07-04T14:05:48.211Z,30.60
2018-07-04T14:08:28.127Z,30.50
2018-07-04T14:11:08.308Z,30.40
2018-07-04T14:13:48.151Z,30.20
2018-07-04T14:16:28.237Z,29.90
2018-07-04T14:19:08.142Z,29.90
2018-07-04T14:21:47.916Z,29.90
2018-07-04T14:24:27.664Z,29.90
2018-07-04T14:27:07.443Z,30.00
2018-07-04T14:29:47.064Z,29.50
2018-07-04T14:32:26.834Z,29.70
2018-07-04T14:35:06.617Z,29.50
2018-07-04T14:37:46.464Z,29.60
2018-07-04T14:40:26.369Z,29.50
2018-07-04T14:43:06.327Z,29.40
2018-07-04T14:45:46.226Z,29.30
2018-07-04T14:48:26.095Z,29.10
2018-07-04T14:51:05.890Z,29.20
2018-07-04T14:53:45.884Z,28.80
2018-07-04T14:56:25.615Z,28.90
2018-07-04T14:59:05.611Z,28.90
2018-07-04T15:01:45.320Z,28.80
2018-07-04T15:04:25.243Z,28.70
2018-07-04T15:09:39.001Z,28.70
2018-07-04T15:12:18.575Z,28.70
2018-07-04T15:14:58.393Z,28.80
2018-07-04T15:17:38.176Z,28.70
2018-07-04T15:20:18.101Z,28.50
2018-07-04T15:22:58.080Z,28.50
2018-07-04T15:25:37.855Z,28.60
2018-07-04T15:28:17.627Z,28.70
2018-07-04T15:30:57.782Z,28.70
2018-07-04T15:33:37.552Z,28.50
2018-07-04T15:36:17.535Z,28.50
2018-07-04T15:38:57.327Z,28.60
2018-07-04T15:41:37.273Z,28.50
2018-07-04T15:44:17.150Z,28.40
2018-07-04T15:46:56.815Z,28.50
2018-07-04T15:49:36.635Z,28.50
2018-07-04T15:52:16.423Z,28.40
2018-07-04T15:54:56.242Z,28.40
2018-07-04T15:57:35.947Z,28.40
2018-07-04T16:00:15.664Z,28.40
2018-07-04T16:02:55.720Z,28.40
2018-07-04T16:05:35.608Z,28.20
2018-07-04T16:08:15.259Z,28.20
2018-07-04T16:10:55.199Z,28.20
2018-07-04T16:13:35.082Z,28.30
2018-07-04T16:16:14.858Z,28.30
2018-07-04T16:18:54.640Z,28.40
2018-07-04T16:21:34.378Z,28.30
2018-07-04T16:24:14.112Z,28.20
2018-07-04T16:26:53.915Z,28.30
2018-07-04T16:29:33.698Z,28.40
2018-07-04T16:32:13.431Z,28.30
2018-07-04T16:34:53.640Z,28.40
2018-07-04T16:37:33.303Z,28.40
2018-07-04T16:40:13.237Z,28.40
2018-07-04T16:42:53.239Z,28.30
2018-07-04T16:45:33.047Z,28.30
2018-07-04T16:48:12.764Z,28.20
2018-07-04T16:50:52.504Z,28.20
2018-07-04T16:53:32.108Z,28.20
2018-07-04T16:56:11.823Z,28.10
2018-07-04T16:58:51.535Z,28.00
2018-07-04T17:01:31.348Z,27.90
2018-07-04T17:04:11.153Z,27.80
2018-07-04T17:06:50.883Z,27.70
2018-07-04T17:09:30.653Z,27.60
2018-07-04T17:12:10.444Z,27.60
2018-07-04T17:14:50.193Z,27.60
2018-07-04T17:17:30.111Z,27.50
2018-07-04T17:20:09.922Z,27.50
2018-07-04T17:22:49.851Z,27.40
2018-07-04T17:25:29.847Z,27.40
2018-07-04T17:28:09.743Z,27.70
2018-07-04T17:30:50.094Z,28.20
2018-07-04T17:33:30.033Z,28.30
2018-07-04T17:36:09.790Z,28.00
2018-07-04T17:38:49.919Z,27.80
2018-07-04T17:41:30.456Z,27.70
2018-07-04T17:44:11.299Z,27.50
2018-07-04T17:46:51.292Z,27.40
2018-07-04T17:49:31.210Z,27.20
2018-07-04T17:52:11.282Z,27.20
2018-07-04T17:54:51.206Z,27.00
2018-07-04T17:57:31.231Z,27.00
2018-07-04T18:00:11.081Z,26.80
2018-07-04T18:02:50.891Z,26.70
2018-07-04T18:05:30.702Z,26.60
2018-07-04T18:08:10.603Z,26.40
2018-07-04T18:10:50.596Z,26.30
2018-07-04T18:13:30.500Z,26.30
2018-07-04T18:16:10.380Z,26.40
2018-07-04T18:18:50.355Z,26.20
2018-07-04T18:21:30.392Z,26.00
2018-07-04T18:24:10.247Z,25.80
2018-07-04T18:26:50.063Z,25.70
2018-07-04T18:29:29.970Z,25.50
2018-07-04T18:32:10.037Z,25.40
2018-07-04T18:34:49.892Z,25.10
2018-07-04T18:37:29.842Z,25.00
2018-07-04T18:40:09.780Z,24.90
2018-07-04T18:42:49.841Z,24.70
2018-07-04T18:45:29.838Z,24.60
2018-07-04T18:48:09.667Z,24.50
2018-07-04T18:50:49.491Z,24.30
2018-07-04T18:53:29.535Z,24.20
2018-07-04T18:56:09.471Z,24.10
2018-07-04T18:58:49.495Z,23.90
2018-07-04T19:01:29.168Z,23.70
2018-07-04T19:04:09.209Z,23.60
2018-07-04T19:06:49.187Z,23.50
2018-07-04T19:09:29.206Z,23.30
2018-07-04T19:12:08.845Z,23.30
2018-07-04T19:14:48.787Z,23.10
2018-07-04T19:17:28.560Z,23.00
2018-07-04T19:20:08.357Z,22.90
2018-07-04T19:22:48.477Z,22.80
2018-07-04T19:25:28.669Z,22.70
2018-07-04T19:28:08.554Z,22.50
2018-07-04T19:30:48.623Z,22.40
2018-07-04T19:33:28.625Z,22.30
2018-07-04T19:36:08.772Z,22.20
2018-07-04T19:38:48.719Z,22.10
2018-07-04T19:41:28.773Z,22.00
2018-07-04T19:44:08.998Z,21.80
2018-07-04T19:46:48.820Z,21.90
2018-07-04T19:49:28.720Z,21.80
2018-07-04T19:52:08.564Z,21.70
2018-07-04T19:54:48.522Z,21.50
2018-07-04T19:57:28.714Z,21.50
2018-07-04T20:00:08.558Z,21.40
2018-07-04T20:02:48.530Z,21.40
2018-07-04T20:05:28.200Z,21.30
2018-07-04T20:08:08.235Z,21.30
2018-07-04T20:10:48.068Z,21.20
2018-07-04T20:13:28.100Z,21.20
2018-07-04T20:16:07.807Z,21.10
2018-07-04T20:18:47.705Z,21.00
2018-07-04T20:21:27.495Z,20.80
2018-07-04T20:24:07.504Z,20.80
2018-07-04T20:26:47.268Z,20.70
2018-07-04T20:29:27.038Z,20.70
2018-07-04T20:32:06.751Z,20.50
2018-07-04T20:34:46.567Z,20.50
2018-07-04T20:37:26.264Z,20.50
2018-07-04T20:40:06.091Z,20.50
2018-07-04T20:42:46.076Z,20.40
2018-07-04T20:45:26.045Z,20.30
2018-07-04T20:48:05.911Z,20.20
2018-07-04T20:50:45.948Z,20.10
2018-07-04T20:53:26.099Z,20.10
2018-07-04T20:56:06.327Z,20.10
2018-07-04T20:58:46.277Z,20.10
2018-07-04T21:01:26.087Z,20.00
2018-07-04T21:04:05.811Z,19.90
2018-07-04T21:06:45.650Z,19.90
2018-07-04T21:09:25.561Z,19.90
2018-07-04T21:12:06.226Z,19.80
2018-07-04T21:14:45.953Z,19.70
2018-07-04T21:17:25.913Z,19.70
2018-07-04T21:20:05.683Z,19.60
2018-07-04T21:22:45.429Z,19.50
2018-07-04T21:25:25.291Z,19.50
2018-07-04T21:28:05.546Z,19.50
2018-07-04T21:30:45.366Z,19.40
2018-07-04T21:33:25.207Z,19.40
2018-07-04T21:36:05.108Z,19.40
2018-07-04T21:38:45.293Z,19.20
2018-07-04T21:41:25.005Z,19.10
2018-07-04T21:46:39.031Z,19.10
2018-07-04T21:49:18.905Z,19.00
2018-07-04T21:51:58.672Z,19.00
2018-07-04T21:54:38.595Z,19.00
2018-07-04T21:57:18.360Z,18.90
2018-07-04T21:59:58.161Z,18.80
2018-07-04T22:02:37.913Z,18.80
2018-07-04T22:05:17.990Z,18.80
2018-07-04T22:07:57.869Z,18.70
2018-07-04T22:10:37.874Z,18.70
2018-07-04T22:13:17.762Z,18.70
2018-07-04T22:15:57.955Z,18.60
2018-07-04T22:18:37.794Z,18.50
2018-07-04T22:21:17.771Z,18.40
2018-07-04T22:23:57.526Z,18.50
2018-07-04T22:26:37.315Z,18.40
2018-07-04T22:29:16.978Z,18.40
2018-07-04T22:31:56.829Z,18.40
2018-07-04T22:34:36.620Z,18.40
2018-07-04T22:37:16.290Z,18.40
2018-07-04T22:39:55.945Z,18.40
2018-07-04T22:42:35.883Z,18.30
2018-07-04T22:45:15.666Z,18.20
2018-07-04T22:47:55.577Z,18.20
2018-07-04T22:50:35.426Z,18.20
2018-07-04T22:53:15.512Z,18.10
2018-07-04T22:55:55.295Z,18.10
2018-07-04T22:58:35.468Z,18.10
2018-07-04T23:01:15.266Z,18.10
2018-07-04T23:03:55.158Z,18.10
2018-07-04T23:06:34.965Z,18.00
2018-07-04T23:09:14.978Z,18.00
2018-07-04T23:11:54.698Z,18.00
2018-07-04T23:14:34.632Z,18.00
2018-07-04T23:19:48.619Z,17.90
2018-07-04T23:22:28.280Z,17.90
2018-07-04T23:25:08.003Z,17.90
2018-07-04T23:27:47.730Z,17.90
2018-07-04T23:30:27.789Z,17.80
2018-07-04T23:33:07.508Z,17.80
2018-07-04T23:35:47.290Z,17.80
2018-07-04T23:38:27.181Z,17.80
2018-07-04T23:41:07.046Z,17.80
2018-07-04T23:43:46.803Z,17.80
2018-07-04T23:46:26.726Z,17.70
2018-07-04T23:49:06.758Z,17.70
2018-07-04T23:51:46.943Z,17.70
2018-07-04T23:54:26.905Z,17.70
2018-07-04T23:57:06.924Z,17.70
2018-07-04T23:59:46.816Z,17.70
